NCAR-RAP Real-Time Weather Data

Output produced by METARs form (23 April 2014  08:15 UTC)
found at http://weather.rap.ucar.edu/surface/
 
Conditions at: KALB observed 23 April 2014  07:51 UTC
Temperature: 7.2°C (45°F)
Dewpoint: 2.8°C (37°F) [RH = 74%]
Pressure (altimeter): 29.54 inches Hg (1000.4 mb)
[Sea-level pressure: 1000.3 mb]
Winds: from the NW (310 degrees) at 12 MPH (10 knots; 5.2 m/s)
gusting to 20 MPH (17 knots; 8.8 m/s)
Visibility: 10 or more miles (16+ km)
Ceiling: 6000 feet AGL
Clouds: few clouds at 2200 feet AGL
broken clouds at 6000 feet AGL
broken clouds at 11000 feet AGL
Present Weather: -RA  (light rain)
KALB 230751Z 31010G17KT 10SM -RA FEW022 BKN060 BKN110 07/03 A2954 RMK AO2 RAB02 SLP003 PCPN VRY LGT P0000 T00720028

Conditions at: KALB observed 23 April 2014  07:23 UTC
Temperature: 7.8°C (46°F)
Dewpoint: 2.8°C (37°F) [RH = 71%]
Pressure (altimeter): 29.54 inches Hg (1000.4 mb)
Winds: from the WNW (300 degrees) at 15 MPH (13 knots; 6.8 m/s)
gusting to 26 MPH (23 knots; 12.0 m/s)
Visibility: 10 or more miles (16+ km)
Ceiling: 9000 feet AGL
Clouds: scattered clouds at 2200 feet AGL
overcast cloud deck at 9000 feet AGL
Present Weather: -RA  (light rain)
KALB 230723Z 30013G23KT 10SM -RA SCT022 OVC090 08/03 A2954 RMK AO2 RAB02 P0000 T00780028

Conditions at: KALB observed 23 April 2014  06:51 UTC
Temperature: 8.3°C (47°F)
Dewpoint: 3.3°C (38°F) [RH = 71%]
Pressure (altimeter): 29.56 inches Hg (1001.1 mb)
[Sea-level pressure: 1000.9 mb]
Winds: from the WNW (290 degrees) at 10 MPH (9 knots; 4.7 m/s)
gusting to 23 MPH (20 knots; 10.4 m/s)
Visibility: 10 or more miles (16+ km)
Ceiling: 2100 feet AGL
Clouds: broken clouds at 2100 feet AGL
broken clouds at 8000 feet AGL
Present Weather: no significant weather observed at this time
KALB 230651Z 29009G20KT 10SM BKN021 BKN080 08/03 A2956 RMK AO2 SLP009 BKN080 V OVC T00830033

Conditions at: KALB observed 23 April 2014  06:08 UTC
Temperature: 8.9°C (48°F)
Dewpoint: 3.9°C (39°F) [RH = 71%]
Pressure (altimeter): 29.56 inches Hg (1001.1 mb)
Winds: from the WNW (300 degrees) at 10 MPH (9 knots; 4.7 m/s)
gusting to 24 MPH (21 knots; 10.9 m/s)
Visibility: 10 or more miles (16+ km)
Ceiling: 2000 feet AGL
Clouds: broken clouds at 2000 feet AGL
overcast cloud deck at 9000 feet AGL
Present Weather: no significant weather observed at this time
KALB 230608Z 30009G21KT 10SM BKN020 OVC090 09/04 A2956 RMK AO2 T00890039

Conditions at: KALB observed 23 April 2014  05:51 UTC
Temperature: 8.9°C (48°F)
Dewpoint: 4.4°C (40°F) [RH = 73%]
Pressure (altimeter): 29.55 inches Hg (1000.8 mb)
[Sea-level pressure: 1000.8 mb]
Winds: from the NW (310 degrees) at 14 MPH (12 knots; 6.2 m/s)
gusting to 26 MPH (23 knots; 12.0 m/s)
Visibility: 10 or more miles (16+ km)
Ceiling: 9000 feet AGL
Clouds: few clouds at 2100 feet AGL
broken clouds at 9000 feet AGL
overcast cloud deck at 10000 feet AGL
Present Weather: no significant weather observed at this time
KALB 230551Z 31012G23KT 10SM FEW021 BKN090 OVC100 09/04 A2955 RMK AO2 SLP008 T00890044 10139 20089 51009

Conditions at: KALB observed 23 April 2014  05:07 UTC
Temperature: 9.4°C (49°F)
Dewpoint: 5.6°C (42°F) [RH = 77%]
Pressure (altimeter): 29.55 inches Hg (1000.8 mb)
Winds: from the WNW (300 degrees) at 16 MPH (14 knots; 7.3 m/s)
gusting to 22 MPH (19 knots; 9.9 m/s)
Visibility: 10 or more miles (16+ km)
Ceiling: 8000 feet AGL
Clouds: few clouds at 1800 feet AGL
scattered clouds at 2400 feet AGL
overcast cloud deck at 8000 feet AGL
Present Weather: no significant weather observed at this time
KALB 230507Z 30014G19KT 10SM FEW018 SCT024 OVC080 09/06 A2955 RMK AO2 T00940056

Conditions at: KALB observed 23 April 2014  04:51 UTC
Temperature: 10.0°C (50°F)
Dewpoint: 6.1°C (43°F) [RH = 77%]
Pressure (altimeter): 29.55 inches Hg (1000.8 mb)
[Sea-level pressure: 1000.5 mb]
Winds: from the WNW (290 degrees) at 17 MPH (15 knots; 7.8 m/s)
gusting to 23 MPH (20 knots; 10.4 m/s)
Visibility: 10 or more miles (16+ km)
Ceiling: 1900 feet AGL
Clouds: broken clouds at 1900 feet AGL
broken clouds at 2400 feet AGL
overcast cloud deck at 6000 feet AGL
Present Weather: no significant weather observed at this time
KALB 230451Z 29015G20KT 10SM BKN019 BKN024 OVC060 10/06 A2955 RMK AO2 PK WND 31026/0440 SLP005 T01000061 402110100

Conditions at: KALB observed 23 April 2014  04:05 UTC
Temperature: 10.6°C (51°F)
Dewpoint: 6.7°C (44°F) [RH = 77%]
Pressure (altimeter): 29.55 inches Hg (1000.8 mb)
Winds: from the W (280 degrees) at 15 MPH (13 knots; 6.8 m/s)
Visibility: 10 or more miles (16+ km)
Ceiling: 2100 feet AGL
Clouds: broken clouds at 2100 feet AGL
broken clouds at 8000 feet AGL
broken clouds at 22000 feet AGL
Present Weather: no significant weather observed at this time
KALB 230405Z 28013KT 10SM BKN021 BKN080 BKN220 11/07 A2955 RMK AO2 T01060067

Conditions at: KALB observed 23 April 2014  03:51 UTC
Temperature: 10.6°C (51°F)
Dewpoint: 6.7°C (44°F) [RH = 77%]
Pressure (altimeter): 29.54 inches Hg (1000.4 mb)
[Sea-level pressure: 1000.5 mb]
Winds: from the W (280 degrees) at 13 MPH (11 knots; 5.7 m/s)
gusting to 24 MPH (21 knots; 10.9 m/s)
Visibility: 10 or more miles (16+ km)
Ceiling: 22000 feet AGL
Clouds: few clouds at 2100 feet AGL
few clouds at 3300 feet AGL
scattered clouds at 8000 feet AGL
broken clouds at 22000 feet AGL
Present Weather: no significant weather observed at this time
KALB 230351Z 28011G21KT 10SM FEW021 FEW033 SCT080 BKN220 11/07 A2954 RMK AO2 SLP005 T01060067

Conditions at: KALB observed 23 April 2014  02:51 UTC
Temperature: 13.3°C (56°F)
Dewpoint: 9.4°C (49°F) [RH = 77%]
Pressure (altimeter): 29.53 inches Hg (1000.1 mb)
[Sea-level pressure: 999.9 mb]
Winds: from the WNW (300 degrees) at 12 MPH (10 knots; 5.2 m/s)
Visibility: 10 or more miles (16+ km)
Ceiling: 3100 feet AGL
Clouds: scattered clouds at 2100 feet AGL
broken clouds at 3100 feet AGL
broken clouds at 4200 feet AGL
overcast cloud deck at 22000 feet AGL
Present Weather: no significant weather observed at this time
KALB 230251Z 30010KT 10SM SCT021 BKN031 BKN042 OVC220 13/09 A2953 RMK AO2 SLP999 T01330094 50005

Conditions at: KALB observed 23 April 2014  01:51 UTC
Temperature: 13.3°C (56°F)
Dewpoint: 9.4°C (49°F) [RH = 77%]
Pressure (altimeter): 29.53 inches Hg (1000.1 mb)
[Sea-level pressure: 1000.0 mb]
Winds: from the W (260 degrees) at 7 MPH (6 knots; 3.1 m/s)
Visibility: 10 or more miles (16+ km)
Ceiling: 16000 feet AGL
Clouds: scattered clouds at 11000 feet AGL
broken clouds at 16000 feet AGL
broken clouds at 20000 feet AGL
Present Weather: no significant weather observed at this time
KALB 230151Z 26006KT 10SM SCT110 BKN160 BKN200 13/09 A2953 RMK AO2 SLP000 T01330094

Conditions at: KALB observed 23 April 2014  00:51 UTC
Temperature: 13.9°C (57°F)
Dewpoint: 10.0°C (50°F) [RH = 77%]
Pressure (altimeter): 29.52 inches Hg (999.7 mb)
[Sea-level pressure: 999.6 mb]
Winds: from the W (260 degrees) at 7 MPH (6 knots; 3.1 m/s)
Visibility: 10 or more miles (16+ km)
Ceiling: 10000 feet AGL
Clouds: few clouds at 2600 feet AGL
few clouds at 4800 feet AGL
broken clouds at 10000 feet AGL
Present Weather: no significant weather observed at this time
KALB 230051Z 26006KT 10SM FEW026 FEW048 BKN100 14/10 A2952 RMK AO2 SLP996 T01390100

Conditions at: KALB observed 22 April 2014  23:51 UTC
Temperature: 14.4°C (58°F)
Dewpoint: 10.6°C (51°F) [RH = 78%]
Pressure (altimeter): 29.51 inches Hg (999.4 mb)
[Sea-level pressure: 999.3 mb]
Winds: from the W (280 degrees) at 7 MPH (6 knots; 3.1 m/s)
Visibility: 10 or more miles (16+ km)
Ceiling: 11000 feet AGL
Clouds: few clouds at 2600 feet AGL
scattered clouds at 4800 feet AGL
broken clouds at 11000 feet AGL
Present Weather: no significant weather observed at this time
KALB 222351Z 28006KT 10SM FEW026 SCT048 BKN110 14/11 A2951 RMK AO2 RAE22 SLP993 P0000 60002 T01440106 10206 20144 53007

Conditions at: KALB observed 22 April 2014  22:51 UTC
Temperature: 15.0°C (59°F)
Dewpoint: 10.0°C (50°F) [RH = 72%]
Pressure (altimeter): 29.50 inches Hg (999.1 mb)
[Sea-level pressure: 998.8 mb]
Winds: calm
Visibility: 7 miles (11 km)
Ceiling: 3800 feet AGL
Clouds: broken clouds at 3800 feet AGL
broken clouds at 5000 feet AGL
overcast cloud deck at 7500 feet AGL
Present Weather: -RA  (light rain)
KALB 222251Z 00000KT 7SM -RA BKN038 BKN050 OVC075 15/10 A2950 RMK AO2 SLP988 P0002 T01500100

Conditions at: KALB observed 22 April 2014  21:51 UTC
Temperature: 16.1°C (61°F)
Dewpoint: 7.8°C (46°F) [RH = 58%]
Pressure (altimeter): 29.49 inches Hg (998.7 mb)
[Sea-level pressure: 998.6 mb]
Winds: from the NNW (340 degrees) at 8 MPH (7 knots; 3.6 m/s)
Visibility: 9 miles (14 km)
Ceiling: 4300 feet AGL
Clouds: broken clouds at 4300 feet AGL
overcast cloud deck at 5000 feet AGL
Present Weather: -RA  (light rain)
KALB 222151Z 34007KT 9SM -RA BKN043 OVC050 16/08 A2949 RMK AO2 RAB20 SLP986 P0000 T01610078

Conditions at: KALB observed 22 April 2014  20:51 UTC
Temperature: 17.2°C (63°F)
Dewpoint: 5.6°C (42°F) [RH = 46%]
Pressure (altimeter): 29.49 inches Hg (998.7 mb)
[Sea-level pressure: 998.6 mb]
Winds: from the SE (140 degrees) at 5 MPH (4 knots; 2.1 m/s)
Visibility: 10 or more miles (16+ km)
Ceiling: 5000 feet AGL
Clouds: broken clouds at 5000 feet AGL
overcast cloud deck at 6500 feet AGL
Present Weather: no significant weather observed at this time
KALB 222051Z 14004KT 10SM BKN050 OVC065 17/06 A2949 RMK AO2 RAE34 SLP986 P0000 60000 T01720056 58017